Time;durP1;ratioP1;P1;durP2;ratioP2;P2;SDS_P1;SDS_P2;PMS_P1;PMS_P2;Temp;Humidity;BMP_temperature;BMP_pressure;BME280_temperature;BME280_humidity;BME280_pressure;Samples;Min_cycle;Max_cycle;Signal;HPM_P1;HPM_P2
2021/05/04 00:05:34;;;;;;;8.00;5.40;;;;;;;6.57;75.71;99892.63;21005319;28;20098;-73
2021/05/04 00:15:36;;;;;;;9.88;5.80;;;;;;;6.52;75.99;99879.00;20994463;28;20136;-73
2021/05/04 00:25:37;;;;;;;8.52;5.53;;;;;;;6.44;76.84;99860.31;20994306;28;20045;-73
2021/05/04 00:35:38;;;;;;;9.55;5.72;;;;;;;6.42;77.45;99846.53;21001485;28;20040;-73
2021/05/04 00:45:40;;;;;;;8.73;4.68;;;;;;;6.49;75.91;99829.75;20995304;28;20492;-74
2021/05/04 00:55:42;;;;;;;6.70;4.20;;;;;;;6.62;73.71;99804.84;20993347;28;20166;-74
2021/05/04 01:05:44;;;;;;;6.47;3.78;;;;;;;6.94;70.70;99779.06;20999269;28;20041;-74
2021/05/04 01:15:45;;;;;;;6.65;3.95;;;;;;;7.17;69.44;99757.91;20972682;28;20052;-72
2021/05/04 01:25:46;;;;;;;6.57;3.35;;;;;;;7.36;68.54;99750.03;20992324;28;20416;-73
2021/05/04 01:35:48;;;;;;;5.38;3.10;;;;;;;7.47;66.97;99725.09;20996627;28;20049;-74
2021/05/04 01:45:51;;;;;;;7.47;3.30;;;;;;;7.61;65.68;99719.19;20987981;28;20075;-73
2021/05/04 01:55:53;;;;;;;6.53;2.70;;;;;;;7.78;64.01;99708.69;20991262;28;20048;-73
2021/05/04 02:05:54;;;;;;;6.30;3.17;;;;;;;7.91;62.95;99696.72;20993439;28;20048;-74
2021/05/04 02:15:55;;;;;;;6.82;2.83;;;;;;;8.02;61.34;99678.72;20985066;28;20499;-73
2021/05/04 02:25:58;;;;;;;6.45;2.72;;;;;;;8.12;61.48;99655.59;20986688;28;20461;-73
2021/05/04 02:35:59;;;;;;;4.82;2.60;;;;;;;8.38;59.97;99654.97;20991982;28;20102;-75
2021/05/04 02:46:02;;;;;;;5.20;2.40;;;;;;;8.41;60.03;99633.09;20984007;28;20678;-73
2021/05/04 02:56:04;;;;;;;5.15;2.85;;;;;;;8.49;59.46;99618.69;20988381;28;20414;-74
2021/05/04 03:06:06;;;;;;;6.97;3.00;;;;;;;8.75;58.65;99590.22;20994472;28;20131;-75
2021/05/04 03:16:07;;;;;;;7.75;2.95;;;;;;;8.76;58.64;99582.31;21001075;28;20549;-73
2021/05/04 03:26:09;;;;;;;4.95;2.35;;;;;;;8.92;58.08;99546.53;21004247;28;20415;-73
2021/05/04 03:36:10;;;;;;;5.97;2.67;;;;;;;9.12;57.75;99527.03;21007625;28;20090;-73
2021/05/04 03:46:11;;;;;;;4.95;2.65;;;;;;;9.22;57.38;99503.81;20998137;28;20500;-74
2021/05/04 03:56:13;;;;;;;4.68;2.42;;;;;;;9.34;56.97;99490.81;20983362;28;20050;-73
2021/05/04 04:06:15;;;;;;;7.00;3.00;;;;;;;9.55;56.31;99474.72;21004359;28;20045;-73
2021/05/04 04:16:16;;;;;;;4.65;2.58;;;;;;;9.75;55.22;99469.84;20994712;28;20074;-73
2021/05/04 04:26:17;;;;;;;7.45;2.90;;;;;;;9.69;56.64;99461.59;20995906;28;20488;-75
2021/05/04 04:36:19;;;;;;;5.53;2.70;;;;;;;9.93;55.20;99452.13;20999942;28;20570;-73
2021/05/04 04:46:21;;;;;;;9.02;3.35;;;;;;;10.03;55.33;99447.94;20993851;28;20411;-74
2021/05/04 04:56:22;;;;;;;6.03;2.50;;;;;;;10.20;54.45;99431.16;20992929;28;20052;-73
2021/05/04 05:06:23;;;;;;;4.97;2.40;;;;;;;10.33;54.45;99433.75;20997951;28;20051;-73
2021/05/04 05:16:24;;;;;;;4.40;2.55;;;;;;;10.35;54.56;99424.03;20989120;28;20184;-73
2021/05/04 05:26:26;;;;;;;5.05;2.30;;;;;;;10.61;53.89;99426.53;20990566;28;20102;-72
2021/05/04 05:36:27;;;;;;;4.10;2.22;;;;;;;10.88;52.36;99436.81;20994977;28;20582;-74
2021/05/04 05:46:30;;;;;;;7.53;2.53;;;;;;;11.04;51.81;99441.81;21005938;23;20048;-70
2021/05/04 05:56:32;;;;;;;3.78;1.90;;;;;;;11.27;52.39;99424.44;20982913;28;20684;-70
2021/05/04 06:06:33;;;;;;;4.47;2.17;;;;;;;11.55;50.50;99419.69;21069482;28;20036;-70
2021/05/04 06:16:35;;;;;;;5.35;2.30;;;;;;;11.76;50.81;99409.44;21069793;28;20044;-70
2021/05/04 06:26:37;;;;;;;3.97;2.25;;;;;;;11.98;50.02;99409.50;21068797;28;20044;-69
2021/05/04 06:36:38;;;;;;;8.15;2.08;;;;;;;12.54;48.05;99401.66;21068196;28;20051;-69
2021/05/04 06:46:39;;;;;;;4.55;1.90;;;;;;;13.15;47.16;99387.16;21109467;28;20083;-69
2021/05/04 06:56:41;;;;;;;7.50;3.13;;;;;;;13.55;45.45;99378.63;21063995;28;20119;-69
2021/05/04 07:06:43;;;;;;;7.03;2.30;;;;;;;13.64;45.50;99373.44;21040962;28;20450;-69
2021/05/04 07:16:46;;;;;;;6.45;2.50;;;;;;;13.81;44.63;99373.81;21053091;28;20047;-69
2021/05/04 07:26:48;;;;;;;6.60;2.20;;;;;;;13.83;44.84;99387.66;21072397;28;20047;-69
2021/05/04 07:36:50;;;;;;;6.13;2.22;;;;;;;13.87;45.58;99384.66;21060893;28;20071;-69
2021/05/04 07:46:51;;;;;;;3.47;1.90;;;;;;;14.15;44.17;99393.69;21067880;28;20048;-69
2021/05/04 07:56:52;;;;;;;7.53;2.50;;;;;;;14.90;41.81;99365.16;21072982;28;20079;-69
2021/05/04 08:06:55;;;;;;;7.78;2.40;;;;;;;15.53;40.98;99376.22;21079343;28;20117;-69
2021/05/04 08:16:57;;;;;;;4.93;2.25;;;;;;;15.84;38.85;99363.69;21075910;28;20048;-69
2021/05/04 08:26:59;;;;;;;4.03;1.80;;;;;;;16.24;37.37;99368.72;21074942;28;20047;-70
2021/05/04 08:37:02;;;;;;;5.63;1.92;;;;;;;15.84;35.73;99361.06;21111980;28;20044;-69
2021/05/04 08:47:03;;;;;;;6.60;1.30;;;;;;;15.01;33.26;99377.41;21053770;28;20082;-70
2021/05/04 08:57:04;;;;;;;5.28;1.60;;;;;;;13.75;47.92;99438.28;21057410;28;20048;-70
2021/05/04 09:07:24;;;;;;;4.45;1.42;;;;;;;12.20;53.75;99436.69;21069413;28;20089;-70
2021/05/04 09:17:37;;;;;;;2.08;1.10;;;;;;;12.14;58.63;99429.31;21036616;28;20109;-70
2021/05/04 09:27:57;;;;;;;3.63;1.58;;;;;;;12.30;61.64;99435.88;21022552;28;20074;-71
2021/05/04 09:38:16;;;;;;;4.32;1.70;;;;;;;12.13;62.99;99451.25;21051911;28;20048;-71
2021/05/04 09:48:22;;;;;;;3.40;1.63;;;;;;;11.96;64.92;99449.88;21041749;28;20069;-71
2021/05/04 09:58:31;;;;;;;5.57;2.03;;;;;;;12.07;62.86;99455.16;21045541;28;20056;-70
2021/05/04 10:08:34;;;;;;;6.40;1.73;;;;;;;12.08;61.30;99443.72;21036915;28;20036;-70
2021/05/04 10:18:36;;;;;;;3.45;1.60;;;;;;;12.13;61.05;99461.72;21045472;28;20060;-70
2021/05/04 10:28:40;;;;;;;2.40;1.35;;;;;;;12.57;59.65;99453.91;21065156;28;20425;-71
2021/05/04 10:38:55;;;;;;;4.30;1.45;;;;;;;12.84;56.82;99441.28;21026885;28;20044;-71
2021/05/04 10:48:56;;;;;;;3.70;1.60;;;;;;;13.43;54.67;99424.31;21062815;28;20438;-71
2021/05/04 10:58:58;;;;;;;4.70;1.33;;;;;;;13.34;52.70;99452.19;21044401;28;20171;-71
2021/05/04 11:08:59;;;;;;;4.22;1.50;;;;;;;13.13;52.19;99446.84;21033108;28;20051;-71
2021/05/04 11:19:10;;;;;;;4.85;1.40;;;;;;;13.24;53.03;99459.97;21051183;28;20513;-72
2021/05/04 11:29:14;;;;;;;4.63;1.50;;;;;;;13.14;53.57;99484.47;21046374;28;20052;-71
2021/05/04 11:39:16;;;;;;;3.97;1.50;;;;;;;13.70;53.41;99477.28;21060432;28;20044;-72
2021/05/04 11:49:24;;;;;;;5.78;1.88;;;;;;;13.88;54.27;99482.81;21063279;28;20044;-72
2021/05/04 11:59:26;;;;;;;2.92;1.60;;;;;;;13.47;55.79;99487.03;21039318;28;20642;-71
2021/05/04 12:09:34;;;;;;;3.47;1.80;;;;;;;13.95;56.45;99490.09;21059126;28;20424;-71
2021/05/04 12:19:36;;;;;;;4.70;1.92;;;;;;;13.32;59.71;99485.63;21050477;28;20052;-70
2021/05/04 12:29:38;;;;;;;3.92;1.30;;;;;;;13.63;56.43;99444.56;21063045;28;20418;-70
2021/05/04 12:39:41;;;;;;;3.40;1.50;;;;;;;14.03;55.42;99448.19;21085904;28;20048;-71
2021/05/04 12:49:44;;;;;;;3.42;1.10;;;;;;;14.07;53.60;99459.28;21056914;28;20106;-70
2021/05/04 12:59:52;;;;;;;2.03;1.10;;;;;;;13.32;58.37;99430.44;21074029;28;20474;-70
2021/05/04 13:10:15;;;;;;;4.43;1.48;;;;;;;13.97;54.46;99432.06;21072969;28;20486;-70
2021/05/04 13:30:37;;;;;;;4.15;0.90;;;;;;;13.08;62.29;99435.00;21066848;28;20040;-70
2021/05/04 13:51:00;;;;;;;4.07;1.77;;;;;;;13.99;66.92;99404.69;21066039;28;20045;-72
2021/05/04 14:31:51;;;;;;;3.97;1.90;;;;;;;11.48;79.65;99405.34;21056284;28;20688;-71
2021/05/04 15:02:33;;;;;;;4.15;1.83;;;;;;;11.55;82.11;99390.84;21070833;28;20117;-72
2021/05/04 15:12:34;;;;;;;3.33;1.60;;;;;;;11.22;85.95;99403.00;21071052;28;20085;-71
2021/05/04 15:22:37;;;;;;;4.60;1.60;;;;;;;11.20;86.12;99378.69;21091794;28;20146;-72
2021/05/04 15:32:48;;;;;;;4.75;2.00;;;;;;;11.19;87.09;99369.16;21076136;28;20449;-70
2021/05/04 15:42:50;;;;;;;5.13;1.70;;;;;;;11.19;88.82;99358.66;21070176;28;20396;-70
2021/05/04 15:53:00;;;;;;;4.68;2.05;;;;;;;11.09;90.63;99346.25;21081311;28;20411;-70
2021/05/04 16:03:21;;;;;;;4.05;1.98;;;;;;;10.63;91.58;99334.81;21071968;28;20044;-70
2021/05/04 16:13:24;;;;;;;4.13;1.73;;;;;;;10.39;94.01;99324.31;21070490;28;20046;-72
2021/05/04 16:23:33;;;;;;;2.65;1.50;;;;;;;10.02;95.72;99320.78;21078111;28;20491;-70
2021/05/04 16:33:34;;;;;;;4.00;1.75;;;;;;;9.54;100.00;99313.69;21073606;28;20051;-69
2021/05/04 16:43:36;;;;;;;3.40;1.60;;;;;;;9.64;100.00;99296.44;21075632;28;20051;-70
2021/05/04 16:53:38;;;;;;;3.53;1.30;;;;;;;9.73;100.00;99303.66;21058430;28;20453;-68
2021/05/04 17:03:42;;;;;;;1.95;1.00;;;;;;;9.52;100.00;99290.28;21075547;28;20054;-72
2021/05/04 17:13:44;;;;;;;4.30;1.00;;;;;;;9.62;100.00;99290.47;21073501;28;20688;-68
2021/05/04 17:23:45;;;;;;;2.70;1.13;;;;;;;9.63;100.00;99290.38;21073796;28;20044;-70
2021/05/04 17:33:46;;;;;;;3.17;1.30;;;;;;;9.69;100.00;99294.34;21044790;28;20036;-70
2021/05/04 17:43:52;;;;;;;3.72;1.70;;;;;;;9.62;100.00;99291.31;21044439;28;20036;-70
2021/05/04 17:53:53;;;;;;;4.07;1.02;;;;;;;9.56;100.00;99281.28;21070268;28;20110;-70
2021/05/04 18:03:55;;;;;;;1.73;0.90;;;;;;;9.63;100.00;99290.38;21071074;28;20191;-73
2021/05/04 18:24:34;;;;;;;4.25;1.13;;;;;;;9.38;100.00;99306.03;20990363;28;20044;-69
2021/05/04 20:17:06;;;;;;;7.82;2.50;;;;;;;8.84;100.00;99292.22;21088429;28;20465;-72
2021/05/04 20:27:07;;;;;;;6.00;2.20;;;;;;;8.85;100.00;99284.28;21081706;28;20087;-70
2021/05/04 20:37:08;;;;;;;4.72;1.55;;;;;;;8.89;100.00;99288.38;21082653;28;20079;-70
2021/05/04 20:47:15;;;;;;;3.33;1.47;;;;;;;8.89;100.00;99292.75;21078073;28;20036;-72
2021/05/04 20:57:17;;;;;;;4.37;1.50;;;;;;;9.00;100.00;99280.69;21071444;28;20067;-71
2021/05/04 21:07:19;;;;;;;6.28;1.40;;;;;;;8.86;100.00;99279.91;21072315;28;20048;-72
2021/05/04 21:17:23;;;;;;;5.15;2.10;;;;;;;8.88;100.00;99280.66;21055319;28;20078;-71
2021/05/04 21:27:24;;;;;;;3.80;1.70;;;;;;;8.89;100.00;99261.44;21043301;28;20472;-72
2021/05/04 21:37:27;;;;;;;4.30;2.15;;;;;;;8.92;100.00;99263.88;21060987;28;20071;-74
2021/05/04 21:47:28;;;;;;;4.50;2.08;;;;;;;8.91;100.00;99256.97;21068769;28;20482;-75
2021/05/04 21:57:31;;;;;;;3.17;1.60;;;;;;;8.91;100.00;99242.16;21065007;28;20044;-75
2021/05/04 22:07:34;;;;;;;3.08;1.30;;;;;;;8.89;100.00;99244.00;21032162;28;20408;-74
2021/05/04 22:17:57;;;;;;;3.47;0.85;;;;;;;8.85;100.00;99257.34;21066308;28;20499;-74
2021/05/04 22:38:19;;;;;;;1.85;0.77;;;;;;;8.81;100.00;99241.06;21064430;28;20054;-74
2021/05/04 23:19:21;;;;;;;4.22;0.80;;;;;;;8.56;100.00;99235.78;21042596;28;20040;-78
2021/05/04 23:29:22;;;;;;;2.67;0.70;;;;;;;8.49;100.00;99217.06;21010654;28;20102;-78
2021/05/04 23:39:23;;;;;;;3.20;0.90;;;;;;;8.42;100.00;99202.78;21014504;28;20459;-78
2021/05/04 23:49:25;;;;;;;5.80;0.88;;;;;;;8.33;100.00;99192.91;21015010;28;20356;-78
2021/05/04 23:59:26;;;;;;;2.90;0.60;;;;;;;8.20;100.00;99194.63;21015504;28;20055;-78
